createdAt,value
2023-03-27T00:01:06.969Z,6.00
2023-03-27T00:03:33.804Z,6.00
2023-03-27T00:06:05.131Z,5.90
2023-03-27T00:08:32.059Z,5.90
2023-03-27T00:10:59.831Z,5.90
2023-03-27T00:13:28.572Z,5.90
2023-03-27T00:15:56.093Z,5.80
2023-03-27T00:18:23.676Z,5.80
2023-03-27T00:20:50.470Z,5.80
2023-03-27T00:23:17.338Z,5.70
2023-03-27T00:25:43.960Z,5.60
2023-03-27T00:28:10.608Z,5.60
2023-03-27T00:30:37.422Z,5.60
2023-03-27T00:33:04.304Z,5.60
2023-03-27T00:35:31.050Z,5.60
2023-03-27T00:37:57.779Z,5.60
2023-03-27T00:40:24.552Z,5.50
2023-03-27T00:42:51.723Z,5.50
2023-03-27T00:45:19.128Z,5.60
2023-03-27T00:47:46.739Z,5.60
2023-03-27T00:50:17.885Z,5.60
2023-03-27T00:52:44.828Z,5.60
2023-03-27T00:55:13.183Z,5.60
2023-03-27T00:57:41.575Z,5.60
2023-03-27T01:00:09.485Z,5.60
2023-03-27T01:02:36.372Z,5.60
2023-03-27T01:05:03.098Z,5.60
2023-03-27T01:07:29.980Z,5.60
2023-03-27T01:09:56.716Z,5.60
2023-03-27T01:12:37.847Z,5.60
2023-03-27T01:15:07.920Z,5.60
2023-03-27T01:18:01.032Z,5.60
2023-03-27T01:21:00.821Z,5.50
2023-03-27T01:23:59.435Z,5.50
2023-03-27T01:26:45.403Z,5.50
2023-03-27T01:29:22.097Z,5.40
2023-03-27T01:32:00.990Z,5.40
2023-03-27T01:34:47.393Z,5.40
2023-03-27T01:37:57.427Z,5.30
2023-03-27T01:40:33.027Z,5.30
2023-03-27T01:43:08.484Z,5.20
2023-03-27T01:46:03.497Z,5.20
2023-03-27T01:48:40.273Z,5.10
2023-03-27T01:51:16.451Z,5.10
2023-03-27T01:53:46.221Z,5.00
2023-03-27T01:56:18.569Z,5.00
2023-03-27T01:58:47.386Z,4.90
2023-03-27T02:01:22.847Z,4.90
2023-03-27T02:03:51.687Z,4.80
2023-03-27T02:06:21.189Z,4.70
2023-03-27T02:09:10.873Z,4.70
2023-03-27T02:11:44.170Z,4.70
2023-03-27T02:14:21.684Z,4.70
2023-03-27T02:16:53.368Z,4.60
2023-03-27T02:19:41.237Z,4.60
2023-03-27T02:22:07.913Z,4.60
2023-03-27T02:24:34.601Z,4.60
2023-03-27T02:27:26.018Z,4.60
2023-03-27T02:29:57.793Z,4.60
2023-03-27T02:32:35.902Z,4.60
2023-03-27T02:35:16.648Z,4.50
2023-03-27T02:37:46.365Z,4.50
2023-03-27T02:40:33.347Z,4.40
2023-03-27T02:43:27.106Z,4.30
2023-03-27T02:46:08.707Z,4.20
2023-03-27T02:48:41.150Z,4.10
2023-03-27T02:51:14.014Z,4.10
2023-03-27T02:53:45.651Z,4.20
2023-03-27T02:56:12.396Z,4.20
2023-03-27T02:58:43.110Z,4.20
2023-03-27T03:01:09.885Z,4.20
2023-03-27T03:03:39.513Z,4.20
2023-03-27T03:06:06.366Z,4.30
2023-03-27T03:08:34.338Z,4.30
2023-03-27T03:11:19.150Z,4.30
2023-03-27T03:13:45.888Z,4.40
2023-03-27T03:16:12.695Z,4.40
2023-03-27T03:18:39.360Z,4.40
2023-03-27T03:21:06.217Z,4.50
2023-03-27T03:23:33.044Z,4.50
2023-03-27T03:25:59.752Z,4.50
2023-03-27T03:28:26.408Z,4.50
2023-03-27T03:30:53.544Z,4.60
2023-03-27T03:33:20.558Z,4.60
2023-03-27T03:35:50.483Z,4.60
2023-03-27T03:38:17.220Z,4.60
2023-03-27T03:40:43.915Z,4.50
2023-03-27T03:43:10.656Z,4.50
2023-03-27T03:45:44.545Z,4.50
2023-03-27T03:48:11.358Z,4.40
2023-03-27T03:50:38.089Z,4.40
2023-03-27T03:53:04.847Z,4.30
2023-03-27T03:55:31.962Z,4.20
2023-03-27T03:57:58.727Z,4.20
2023-03-27T04:00:25.735Z,4.20
2023-03-27T04:02:52.865Z,4.10
2023-03-27T04:05:20.228Z,4.20
2023-03-27T04:07:47.158Z,4.20
2023-03-27T04:10:13.854Z,4.20
2023-03-27T04:12:40.749Z,4.20
2023-03-27T04:15:07.894Z,4.20
2023-03-27T04:17:35.876Z,4.20
2023-03-27T04:20:02.637Z,4.20
2023-03-27T04:22:29.613Z,4.20
2023-03-27T04:24:56.310Z,4.20
2023-03-27T04:27:23.068Z,4.20
2023-03-27T04:29:49.679Z,4.10
2023-03-27T04:32:17.044Z,4.10
2023-03-27T04:34:43.816Z,4.10
2023-03-27T04:37:10.836Z,4.00
2023-03-27T04:39:37.504Z,4.00
2023-03-27T04:42:04.430Z,3.90
2023-03-27T04:44:31.185Z,3.90
2023-03-27T04:46:57.952Z,3.90
2023-03-27T04:49:24.774Z,3.90
2023-03-27T04:51:51.418Z,3.90
2023-03-27T04:54:19.173Z,3.90
2023-03-27T04:56:45.903Z,3.90
2023-03-27T04:59:12.654Z,3.90
2023-03-27T05:01:39.395Z,3.90
2023-03-27T05:04:06.580Z,3.90
2023-03-27T05:06:33.249Z,3.80
2023-03-27T05:08:59.898Z,3.80
2023-03-27T05:11:27.611Z,3.70
2023-03-27T05:13:54.290Z,3.70
2023-03-27T05:16:21.455Z,3.60
2023-03-27T05:18:50.465Z,3.50
2023-03-27T05:21:17.432Z,3.50
2023-03-27T05:23:44.202Z,3.50
2023-03-27T05:26:10.844Z,3.40
2023-03-27T05:28:38.013Z,3.30
2023-03-27T05:31:08.060Z,3.30
2023-03-27T05:33:34.697Z,3.30
2023-03-27T05:36:01.504Z,3.40
2023-03-27T05:38:28.410Z,3.40
2023-03-27T05:40:55.355Z,3.50
2023-03-27T05:43:22.473Z,3.50
2023-03-27T05:45:53.062Z,3.50
2023-03-27T05:48:22.046Z,3.60
2023-03-27T05:50:49.554Z,3.60
2023-03-27T05:53:16.289Z,3.70
2023-03-27T05:55:44.336Z,3.70
2023-03-27T05:58:11.229Z,3.70
2023-03-27T06:00:40.666Z,3.70
2023-03-27T06:03:08.062Z,3.70
2023-03-27T06:05:34.978Z,3.70
2023-03-27T06:08:02.302Z,3.80
2023-03-27T06:10:29.790Z,3.90
2023-03-27T06:13:00.652Z,3.90
2023-03-27T06:15:27.562Z,4.00
2023-03-27T06:17:54.330Z,4.10
2023-03-27T06:20:21.268Z,4.10
2023-03-27T06:22:51.448Z,4.20
2023-03-27T06:25:18.961Z,4.20
2023-03-27T06:27:53.049Z,4.30
2023-03-27T06:30:21.270Z,4.40
2023-03-27T06:32:53.749Z,4.40
2023-03-27T06:35:20.661Z,4.40
2023-03-27T06:37:50.676Z,4.30
2023-03-27T06:40:21.197Z,4.30
2023-03-27T06:42:57.523Z,4.30
2023-03-27T06:45:26.196Z,4.30
2023-03-27T06:48:17.064Z,4.20
2023-03-27T06:50:48.388Z,4.20
2023-03-27T06:53:25.805Z,4.30
2023-03-27T06:55:54.562Z,4.30
2023-03-27T06:58:21.439Z,4.30
2023-03-27T07:00:48.433Z,4.40
2023-03-27T07:03:15.241Z,4.50
2023-03-27T07:05:41.998Z,4.60
2023-03-27T07:08:22.354Z,4.70
2023-03-27T07:10:59.655Z,4.80
2023-03-27T07:13:34.814Z,4.80
2023-03-27T07:16:02.610Z,4.90
2023-03-27T07:18:29.563Z,5.00
2023-03-27T07:20:56.521Z,5.00
2023-03-27T07:23:23.433Z,5.10
2023-03-27T07:25:54.305Z,5.10
2023-03-27T07:28:21.054Z,5.10
2023-03-27T07:30:47.763Z,5.20
2023-03-27T07:33:14.691Z,5.20
2023-03-27T07:35:45.434Z,5.20
2023-03-27T07:38:12.353Z,5.30
2023-03-27T07:40:40.594Z,5.20
2023-03-27T07:43:07.781Z,5.30
2023-03-27T07:45:34.934Z,5.30
2023-03-27T07:48:12.909Z,5.30
2023-03-27T07:50:39.577Z,5.30
2023-03-27T07:53:06.503Z,5.30
2023-03-27T07:55:33.409Z,5.30
2023-03-27T07:58:02.783Z,5.40
2023-03-27T08:00:30.038Z,5.40
2023-03-27T08:03:10.959Z,5.40
2023-03-27T08:05:37.857Z,5.40
2023-03-27T08:08:04.636Z,5.50
2023-03-27T08:10:31.391Z,5.60
2023-03-27T08:12:58.235Z,5.60
2023-03-27T08:15:25.214Z,5.70
2023-03-27T08:17:52.400Z,5.70
2023-03-27T08:20:19.194Z,5.70
2023-03-27T08:22:45.915Z,5.70
2023-03-27T08:25:12.747Z,5.80
2023-03-27T08:27:39.484Z,5.90
2023-03-27T08:30:06.799Z,6.10
2023-03-27T08:32:33.521Z,6.40
2023-03-27T08:35:00.219Z,7.00
2023-03-27T08:37:27.012Z,7.80
2023-03-27T08:39:53.667Z,8.60
2023-03-27T08:42:22.401Z,9.20
2023-03-27T08:44:50.977Z,9.30
2023-03-27T08:47:22.531Z,9.70
2023-03-27T08:49:52.635Z,10.00
2023-03-27T08:52:26.354Z,10.50
2023-03-27T08:55:14.337Z,11.10
2023-03-27T08:57:41.030Z,11.80
2023-03-27T09:00:15.550Z,12.30
2023-03-27T09:02:51.282Z,12.70
2023-03-27T09:05:22.353Z,12.90
2023-03-27T09:08:33.830Z,13.10
2023-03-27T09:11:04.987Z,13.20
2023-03-27T09:13:48.327Z,12.90
2023-03-27T09:16:37.672Z,12.40
2023-03-27T09:19:49.489Z,12.00
2023-03-27T09:22:21.368Z,12.00
2023-03-27T09:24:49.067Z,12.50
2023-03-27T09:27:28.166Z,12.90
2023-03-27T09:30:07.704Z,13.30
2023-03-27T09:32:34.432Z,13.90
2023-03-27T09:35:02.124Z,14.10
2023-03-27T09:37:28.872Z,13.60
2023-03-27T09:39:55.642Z,12.40
2023-03-27T09:42:34.491Z,11.00
2023-03-27T09:45:04.011Z,9.90
2023-03-27T09:47:38.251Z,9.30
2023-03-27T09:50:37.882Z,8.90
2023-03-27T09:53:14.014Z,9.00
2023-03-27T09:55:55.978Z,9.90
2023-03-27T09:58:28.360Z,11.10
2023-03-27T10:01:18.553Z,12.20
2023-03-27T10:03:55.672Z,12.60
2023-03-27T10:06:29.097Z,12.10
2023-03-27T10:08:57.953Z,11.50
2023-03-27T10:11:30.584Z,10.90
2023-03-27T10:13:59.756Z,10.30
2023-03-27T10:16:26.450Z,9.90
2023-03-27T10:18:54.921Z,10.30
2023-03-27T10:21:28.430Z,11.20
2023-03-27T10:24:03.897Z,12.20
2023-03-27T10:26:32.305Z,13.20
2023-03-27T10:29:00.535Z,13.90
2023-03-27T10:31:37.130Z,14.50
2023-03-27T10:34:05.539Z,15.00
2023-03-27T10:36:33.709Z,15.50
2023-03-27T10:39:10.801Z,15.90
2023-03-27T10:41:37.481Z,16.10
2023-03-27T10:44:15.266Z,15.80
2023-03-27T10:46:43.986Z,15.50
2023-03-27T10:49:10.672Z,14.80
2023-03-27T10:51:47.209Z,13.60
2023-03-27T10:54:35.904Z,12.30
2023-03-27T10:57:23.127Z,11.40
2023-03-27T11:00:15.057Z,10.80
2023-03-27T11:02:58.263Z,10.70
2023-03-27T11:05:31.131Z,11.20
2023-03-27T11:08:06.014Z,12.20
2023-03-27T11:10:45.061Z,13.40
2023-03-27T11:13:44.392Z,14.10
2023-03-27T11:16:22.086Z,14.30
2023-03-27T11:18:50.056Z,13.70
2023-03-27T11:21:33.666Z,13.50
2023-03-27T11:24:00.562Z,13.60
2023-03-27T11:26:56.517Z,13.60
2023-03-27T11:29:26.158Z,13.60
2023-03-27T11:31:52.867Z,13.90
2023-03-27T11:34:41.863Z,14.30
2023-03-27T11:37:25.649Z,15.00
2023-03-27T11:39:52.860Z,15.60
2023-03-27T11:42:33.109Z,16.10
2023-03-27T11:44:59.972Z,16.00
2023-03-27T11:48:04.361Z,15.90
2023-03-27T11:50:48.501Z,16.20
2023-03-27T11:53:38.414Z,16.10
2023-03-27T11:56:30.724Z,15.80
2023-03-27T11:59:12.569Z,15.70
2023-03-27T12:01:45.317Z,16.30
2023-03-27T12:04:22.592Z,16.90
2023-03-27T12:07:12.070Z,17.30
2023-03-27T12:10:28.441Z,17.40
2023-03-27T12:13:28.824Z,17.50
2023-03-27T12:16:29.395Z,16.80
2023-03-27T12:19:05.864Z,15.70
2023-03-27T12:21:58.004Z,14.20
2023-03-27T12:24:37.852Z,12.70
2023-03-27T12:27:24.317Z,11.90
2023-03-27T12:30:14.555Z,11.20
2023-03-27T12:33:01.061Z,10.80
2023-03-27T12:35:47.297Z,10.70
2023-03-27T12:38:43.329Z,10.80
2023-03-27T12:41:26.081Z,11.10
2023-03-27T12:44:01.943Z,11.60
2023-03-27T12:47:03.939Z,12.50
2023-03-27T12:49:56.945Z,13.40
2023-03-27T12:52:23.923Z,14.30
2023-03-27T12:55:13.211Z,14.80
2023-03-27T12:57:49.637Z,15.30
2023-03-27T13:00:21.750Z,15.60
2023-03-27T13:03:02.371Z,15.90
2023-03-27T13:05:42.145Z,16.20
2023-03-27T13:08:21.780Z,16.40
2023-03-27T13:11:19.491Z,16.60
2023-03-27T13:14:16.053Z,16.60
2023-03-27T13:17:11.355Z,16.70
2023-03-27T13:20:14.599Z,16.90
2023-03-27T13:23:06.014Z,16.80
2023-03-27T13:25:44.633Z,15.80
2023-03-27T13:28:30.419Z,15.40
2023-03-27T13:31:01.403Z,15.30
2023-03-27T13:33:34.077Z,14.80
2023-03-27T13:36:06.143Z,14.70
2023-03-27T13:38:51.274Z,14.80
2023-03-27T13:41:46.072Z,14.60
2023-03-27T13:44:26.798Z,14.00
2023-03-27T13:47:01.829Z,13.30
2023-03-27T13:49:54.800Z,12.70
2023-03-27T13:52:40.566Z,12.40
2023-03-27T13:55:16.412Z,12.80
2023-03-27T13:58:10.585Z,13.10
2023-03-27T14:00:39.995Z,13.70
2023-03-27T14:03:36.162Z,14.30
2023-03-27T14:06:09.995Z,14.60
2023-03-27T14:08:55.412Z,14.30
2023-03-27T14:11:37.953Z,13.60
2023-03-27T14:14:27.356Z,13.00
2023-03-27T14:17:06.204Z,12.50
2023-03-27T14:19:42.969Z,12.20
2023-03-27T14:22:25.005Z,12.00
2023-03-27T14:25:01.583Z,12.50
2023-03-27T14:27:29.499Z,13.20
2023-03-27T14:30:13.466Z,13.60
2023-03-27T14:32:40.388Z,14.00
2023-03-27T14:35:32.180Z,14.40
2023-03-27T14:38:04.808Z,14.90
2023-03-27T14:40:36.476Z,14.90
2023-03-27T14:43:11.779Z,15.00
2023-03-27T14:45:40.693Z,14.70
2023-03-27T14:48:35.965Z,14.20
2023-03-27T14:51:10.495Z,14.20
2023-03-27T14:53:38.360Z,14.30
2023-03-27T14:56:15.755Z,13.80
2023-03-27T14:58:44.704Z,13.40
2023-03-27T15:01:11.763Z,13.10
2023-03-27T15:03:38.551Z,13.20
2023-03-27T15:06:12.458Z,13.10
2023-03-27T15:08:39.435Z,12.80
2023-03-27T15:11:15.028Z,12.80
2023-03-27T15:13:41.760Z,12.60
2023-03-27T15:16:09.361Z,12.20
2023-03-27T15:18:40.851Z,11.90
2023-03-27T15:21:10.964Z,11.60
2023-03-27T15:23:40.930Z,11.40
2023-03-27T15:26:13.116Z,11.20
2023-03-27T15:28:52.101Z,11.00
2023-03-27T15:31:19.005Z,10.60
2023-03-27T15:33:57.812Z,10.30
2023-03-27T15:36:24.579Z,10.10
2023-03-27T15:38:51.264Z,10.10
2023-03-27T15:41:17.978Z,10.10
2023-03-27T15:43:44.747Z,10.20
2023-03-27T15:46:20.485Z,10.30
2023-03-27T15:48:47.621Z,10.40
2023-03-27T15:51:20.166Z,10.30
2023-03-27T15:53:50.976Z,10.10
2023-03-27T15:56:24.286Z,10.00
2023-03-27T15:59:17.191Z,9.90
2023-03-27T16:02:10.911Z,9.90
2023-03-27T16:04:39.820Z,9.80
2023-03-27T16:07:42.812Z,9.80
2023-03-27T16:10:10.002Z,9.80
2023-03-27T16:12:39.783Z,9.70
2023-03-27T16:15:49.844Z,9.50
2023-03-27T16:18:33.142Z,9.40
2023-03-27T16:21:11.150Z,9.30
2023-03-27T16:23:37.927Z,9.20
2023-03-27T16:26:06.061Z,9.10
2023-03-27T16:28:32.962Z,9.00
2023-03-27T16:30:59.735Z,8.90
2023-03-27T16:33:27.537Z,8.80
2023-03-27T16:35:54.673Z,8.70
2023-03-27T16:38:21.640Z,8.70
2023-03-27T16:40:48.348Z,8.60
2023-03-27T16:43:15.275Z,8.60
2023-03-27T16:45:42.490Z,8.60
2023-03-27T16:48:10.420Z,8.60
2023-03-27T16:50:37.618Z,8.50
2023-03-27T16:53:04.363Z,8.50
2023-03-27T16:55:31.207Z,8.40
2023-03-27T16:57:58.137Z,8.30
2023-03-27T17:00:25.028Z,8.30
2023-03-27T17:02:51.854Z,8.20
2023-03-27T17:05:18.799Z,8.10
2023-03-27T17:07:45.654Z,8.10
2023-03-27T17:10:14.143Z,8.00
2023-03-27T17:12:41.034Z,8.00
2023-03-27T17:15:08.500Z,8.00
2023-03-27T17:17:39.092Z,7.90
2023-03-27T17:20:06.459Z,7.80
2023-03-27T17:22:33.484Z,7.70
2023-03-27T17:25:00.268Z,7.70
2023-03-27T17:27:27.057Z,7.60
2023-03-27T17:29:54.578Z,7.60
2023-03-27T17:32:21.467Z,7.50
2023-03-27T17:34:48.278Z,7.50
2023-03-27T17:37:14.987Z,7.50
2023-03-27T17:39:41.755Z,7.50
2023-03-27T17:42:08.670Z,7.40
2023-03-27T17:44:40.317Z,7.40
2023-03-27T17:47:07.159Z,7.40
2023-03-27T17:49:34.568Z,7.30
2023-03-27T17:52:01.281Z,7.30
2023-03-27T17:54:28.106Z,7.20
2023-03-27T17:56:54.990Z,7.10
2023-03-27T17:59:21.841Z,7.10
2023-03-27T18:01:48.618Z,7.10
2023-03-27T18:04:15.435Z,7.00
2023-03-27T18:06:45.107Z,7.00
2023-03-27T18:09:11.930Z,6.90
2023-03-27T18:11:38.650Z,6.90
2023-03-27T18:14:05.546Z,6.90
2023-03-27T18:16:32.336Z,6.80
2023-03-27T18:19:01.194Z,6.70
2023-03-27T18:21:27.960Z,6.70
2023-03-27T18:23:54.872Z,6.70
2023-03-27T18:26:21.624Z,6.60
2023-03-27T18:28:48.286Z,6.60
2023-03-27T18:31:15.352Z,6.50
2023-03-27T18:33:42.229Z,6.50
2023-03-27T18:36:09.553Z,6.50
2023-03-27T18:38:38.681Z,6.50
2023-03-27T18:41:10.835Z,6.50
2023-03-27T18:43:39.139Z,6.40
2023-03-27T18:46:08.159Z,6.40
2023-03-27T18:48:35.267Z,6.30
2023-03-27T18:51:03.870Z,6.30
2023-03-27T18:53:31.718Z,6.20
2023-03-27T18:55:58.928Z,6.20
2023-03-27T18:58:26.532Z,6.20
2023-03-27T19:00:57.617Z,6.10
2023-03-27T19:03:32.172Z,6.10
2023-03-27T19:06:00.491Z,6.10
2023-03-27T19:08:28.391Z,6.00
2023-03-27T19:11:03.274Z,6.00
2023-03-27T19:13:37.738Z,6.00
2023-03-27T19:16:15.714Z,5.90
2023-03-27T19:18:47.094Z,5.90
2023-03-27T19:21:15.495Z,5.90
2023-03-27T19:23:45.952Z,5.80
2023-03-27T19:26:26.871Z,5.80
2023-03-27T19:28:53.740Z,5.80
2023-03-27T19:31:20.574Z,5.80
2023-03-27T19:33:49.246Z,5.80
2023-03-27T19:36:16.241Z,5.70
2023-03-27T19:38:45.152Z,5.70
2023-03-27T19:41:13.767Z,5.70
2023-03-27T19:43:40.583Z,5.60
2023-03-27T19:46:16.203Z,5.60
2023-03-27T19:48:52.726Z,5.60
2023-03-27T19:51:19.634Z,5.60
2023-03-27T19:53:48.534Z,5.60
2023-03-27T19:56:15.451Z,5.50
2023-03-27T19:58:42.198Z,5.50
2023-03-27T20:01:10.082Z,5.40
2023-03-27T20:03:39.677Z,5.40
2023-03-27T20:08:49.885Z,5.20
2023-03-27T20:11:19.792Z,5.20
2023-03-27T20:13:55.944Z,5.10
2023-03-27T20:16:25.350Z,5.10
2023-03-27T20:18:58.800Z,5.10
2023-03-27T20:21:35.344Z,5.00
2023-03-27T20:24:02.459Z,5.00
2023-03-27T20:26:32.569Z,4.90
2023-03-27T20:28:59.417Z,4.90
2023-03-27T20:31:27.534Z,4.90
2023-03-27T20:33:54.510Z,4.90
2023-03-27T20:36:22.003Z,4.80
2023-03-27T20:38:54.493Z,4.80
2023-03-27T20:41:21.484Z,4.80
2023-03-27T20:43:51.163Z,4.70
2023-03-27T20:46:20.803Z,4.70
2023-03-27T20:51:29.500Z,4.60
2023-03-27T20:53:59.209Z,4.60
2023-03-27T20:56:27.382Z,4.60
2023-03-27T20:58:54.343Z,4.60
2023-03-27T21:01:21.309Z,4.60
2023-03-27T21:04:22.192Z,4.50
2023-03-27T21:06:54.486Z,4.50
2023-03-27T21:09:22.602Z,4.50
2023-03-27T21:12:08.854Z,4.40
2023-03-27T21:14:36.372Z,4.40
2023-03-27T21:17:16.291Z,4.40
2023-03-27T21:19:48.090Z,4.30
2023-03-27T21:22:17.374Z,4.30
2023-03-27T21:24:46.952Z,4.20
2023-03-27T21:27:14.145Z,4.20
2023-03-27T21:29:40.949Z,4.20
2023-03-27T21:32:08.454Z,4.10
2023-03-27T21:34:40.291Z,4.10
2023-03-27T21:37:07.374Z,4.10
2023-03-27T21:39:39.559Z,4.00
2023-03-27T21:42:07.042Z,4.00
2023-03-27T21:44:33.880Z,3.90
2023-03-27T21:47:00.510Z,3.80
2023-03-27T21:49:27.476Z,3.80
2023-03-27T21:51:57.904Z,3.80
2023-03-27T21:54:30.576Z,3.70
2023-03-27T21:56:57.246Z,3.70
2023-03-27T22:04:52.379Z,3.70
2023-03-27T22:07:19.212Z,3.70
2023-03-27T22:09:46.157Z,3.60
2023-03-27T22:12:15.825Z,3.60
2023-03-27T22:14:42.792Z,3.60
2023-03-27T22:17:12.440Z,3.60
2023-03-27T22:19:43.682Z,3.60
2023-03-27T22:22:13.611Z,3.50
2023-03-27T22:24:43.357Z,3.50
2023-03-27T22:27:13.171Z,3.50
2023-03-27T22:29:43.194Z,3.40
2023-03-27T22:32:13.630Z,3.40
2023-03-27T22:34:42.765Z,3.30
2023-03-27T22:37:09.576Z,3.30
2023-03-27T22:39:37.766Z,3.30
2023-03-27T22:42:04.721Z,3.30
2023-03-27T22:44:31.505Z,3.20
2023-03-27T22:49:44.582Z,3.20
2023-03-27T22:52:23.533Z,3.20
2023-03-27T22:55:00.493Z,3.10
2023-03-27T22:57:28.990Z,3.10
2023-03-27T22:59:55.665Z,3.10
2023-03-27T23:02:22.591Z,3.10
2023-03-27T23:04:49.870Z,3.10
2023-03-27T23:07:19.514Z,3.00
2023-03-27T23:09:46.427Z,3.00
2023-03-27T23:12:19.206Z,2.90
2023-03-27T23:14:46.052Z,2.90
2023-03-27T23:17:17.137Z,2.90
2023-03-27T23:19:44.025Z,2.90
2023-03-27T23:22:18.232Z,2.80
2023-03-27T23:24:45.341Z,2.80
2023-03-27T23:27:14.947Z,2.80
2023-03-27T23:29:41.902Z,2.70
2023-03-27T23:32:08.700Z,2.70
2023-03-27T23:34:37.536Z,2.70
2023-03-27T23:37:08.287Z,2.70
2023-03-27T23:39:35.162Z,2.70
2023-03-27T23:42:10.957Z,2.60
2023-03-27T23:44:37.842Z,2.60
2023-03-27T23:47:07.897Z,2.60
2023-03-27T23:49:40.643Z,2.60
2023-03-27T23:52:13.249Z,2.50
2023-03-27T23:54:40.074Z,2.50
2023-03-27T23:57:08.434Z,2.40
2023-03-27T23:59:37.891Z,2.40
